DLH5YU EDDN-EDDF
Flight info
| Callsign | DLH5YU |
|---|---|
| Flight time | 0h 23m |
| Altitude | 24000 |
| Route | SUKAD1G/28 SUKAD DCT PIWAW T159 SPESA SPESA5B |
| Aircraft | A319/M-SDE3FGHIRWY/LB1 |
Departure
| Time | 2026-05-07 12:13 |
|---|---|
| Airport | Nuremberg Airport (EDDN) |
Arrival
| Time | 2026-05-07 12:37 |
|---|---|
| Airport | Frankfurt Main Airport (EDDF) |
| Time | Latitude | Longitude | Altitude | Speed | Heading |
|---|---|---|---|---|---|
| 2026-05-07 11:47 | 49.49527 | 11.07726 | 1028 ft | 0 kts | 189° |
| 2026-05-07 12:05 | 49.49529 | 11.07727 | 1027 ft | 2 kts | 189° |
| 2026-05-07 12:05 | 49.49551 | 11.07731 | 1028 ft | 2 kts | 187° |
| 2026-05-07 12:05 | 49.49582 | 11.07731 | 1029 ft | 4 kts | 142° |
| 2026-05-07 12:06 | 49.49592 | 11.07720 | 1030 ft | 4 kts | 105° |
| 2026-05-07 12:06 | 49.49592 | 11.07695 | 1029 ft | 4 kts | 94° |
| 2026-05-07 12:06 | 49.49595 | 11.07676 | 1029 ft | 0 kts | 99° |
| 2026-05-07 12:08 | 49.49595 | 11.07681 | 1029 ft | 2 kts | 99° |
| 2026-05-07 12:08 | 49.49591 | 11.07713 | 1029 ft | 3 kts | 99° |
| 2026-05-07 12:09 | 49.49587 | 11.07753 | 1030 ft | 5 kts | 99° |
| 2026-05-07 12:09 | 49.49579 | 11.07833 | 1030 ft | 9 kts | 99° |
| 2026-05-07 12:09 | 49.49568 | 11.07937 | 1030 ft | 10 kts | 97° |
| 2026-05-07 12:09 | 49.49557 | 11.08063 | 1030 ft | 13 kts | 98° |
| 2026-05-07 12:10 | 49.49545 | 11.08201 | 1030 ft | 13 kts | 98° |
| 2026-05-07 12:10 | 49.49537 | 11.08328 | 1033 ft | 11 kts | 78° |
| 2026-05-07 12:10 | 49.49597 | 11.08373 | 1032 ft | 11 kts | 22° |
| 2026-05-07 12:10 | 49.49608 | 11.08472 | 1032 ft | 10 kts | 99° |
| 2026-05-07 12:11 | 49.49599 | 11.08596 | 1033 ft | 15 kts | 97° |
| 2026-05-07 12:11 | 49.49579 | 11.08815 | 1036 ft | 27 kts | 99° |
| 2026-05-07 12:11 | 49.49552 | 11.09104 | 1038 ft | 27 kts | 98° |
| 2026-05-07 12:11 | 49.49533 | 11.09337 | 1042 ft | 17 kts | 78° |
| 2026-05-07 12:12 | 49.49590 | 11.09487 | 1042 ft | 16 kts | 54° |
| 2026-05-07 12:12 | 49.49674 | 11.09559 | 1045 ft | 13 kts | 342° |
| 2026-05-07 12:12 | 49.49709 | 11.09419 | 1042 ft | 20 kts | 276° |
| 2026-05-07 12:12 | 49.49765 | 11.08871 | 1034 ft | 89 kts | 278° |
| 2026-05-07 12:13 | 49.49894 | 11.07571 | 1033 ft | 150 kts | 278° |
| 2026-05-07 12:13 | 49.50051 | 11.05914 | 1469 ft | 159 kts | 278° |
| 2026-05-07 12:13 | 49.50222 | 11.04221 | 2192 ft | 157 kts | 277° |
| 2026-05-07 12:13 | 49.50392 | 11.02482 | 2644 ft | 174 kts | 277° |
| 2026-05-07 12:14 | 49.50583 | 11.00523 | 2984 ft | 196 kts | 278° |
| 2026-05-07 12:14 | 49.50798 | 10.98317 | 3320 ft | 221 kts | 278° |
| 2026-05-07 12:14 | 49.51038 | 10.95844 | 3812 ft | 245 kts | 278° |
| 2026-05-07 12:14 | 49.51296 | 10.93204 | 4646 ft | 253 kts | 278° |
| 2026-05-07 12:15 | 49.51559 | 10.90511 | 5616 ft | 256 kts | 278° |
| 2026-05-07 12:15 | 49.51823 | 10.87793 | 6551 ft | 259 kts | 278° |
| 2026-05-07 12:15 | 49.52091 | 10.85021 | 7487 ft | 263 kts | 277° |
| 2026-05-07 12:15 | 49.52359 | 10.82215 | 8381 ft | 267 kts | 277° |
| 2026-05-07 12:16 | 49.52684 | 10.79411 | 9226 ft | 273 kts | 285° |
| 2026-05-07 12:16 | 49.53321 | 10.76641 | 10089 ft | 277 kts | 288° |
| 2026-05-07 12:16 | 49.54005 | 10.73770 | 10544 ft | 297 kts | 289° |
| 2026-05-07 12:16 | 49.54748 | 10.70673 | 10873 ft | 319 kts | 289° |
| 2026-05-07 12:17 | 49.55532 | 10.67416 | 11525 ft | 327 kts | 289° |
| 2026-05-07 12:17 | 49.56327 | 10.64108 | 12272 ft | 332 kts | 289° |
| 2026-05-07 12:17 | 49.57132 | 10.60740 | 13017 ft | 337 kts | 289° |
| 2026-05-07 12:17 | 49.57943 | 10.57335 | 13754 ft | 341 kts | 289° |
| 2026-05-07 12:18 | 49.58764 | 10.53884 | 14469 ft | 344 kts | 289° |
| 2026-05-07 12:18 | 49.59590 | 10.50404 | 15148 ft | 349 kts | 289° |
| 2026-05-07 12:18 | 49.60425 | 10.46871 | 15802 ft | 353 kts | 289° |
| 2026-05-07 12:18 | 49.61269 | 10.43292 | 16470 ft | 357 kts | 289° |
| 2026-05-07 12:19 | 49.62119 | 10.39678 | 17115 ft | 360 kts | 289° |
| 2026-05-07 12:19 | 49.62977 | 10.36028 | 17744 ft | 364 kts | 289° |
| 2026-05-07 12:19 | 49.63843 | 10.32335 | 18350 ft | 368 kts | 289° |
| 2026-05-07 12:19 | 49.64718 | 10.28609 | 18959 ft | 371 kts | 289° |
| 2026-05-07 12:20 | 49.65599 | 10.24848 | 19562 ft | 375 kts | 289° |
| 2026-05-07 12:20 | 49.66487 | 10.21043 | 20152 ft | 378 kts | 289° |
| 2026-05-07 12:20 | 49.67382 | 10.17213 | 20724 ft | 381 kts | 289° |
| 2026-05-07 12:20 | 49.68284 | 10.13347 | 21271 ft | 385 kts | 289° |
| 2026-05-07 12:21 | 49.69190 | 10.09447 | 21814 ft | 383 kts | 289° |
| 2026-05-07 12:21 | 49.70087 | 10.05580 | 21508 ft | 382 kts | 289° |
| 2026-05-07 12:21 | 49.70973 | 10.01764 | 20916 ft | 382 kts | 289° |
| 2026-05-07 12:21 | 49.71873 | 9.97882 | 20021 ft | 383 kts | 289° |
| 2026-05-07 12:22 | 49.72767 | 9.94023 | 19146 ft | 380 kts | 289° |
| 2026-05-07 12:22 | 49.73652 | 9.90185 | 18304 ft | 377 kts | 289° |
| 2026-05-07 12:22 | 49.74519 | 9.86400 | 17707 ft | 366 kts | 289° |
| 2026-05-07 12:22 | 49.75351 | 9.82780 | 17286 ft | 352 kts | 289° |
| 2026-05-07 12:23 | 49.76174 | 9.79263 | 16663 ft | 345 kts | 289° |
| 2026-05-07 12:23 | 49.76991 | 9.75798 | 15977 ft | 340 kts | 291° |
| 2026-05-07 12:23 | 49.78223 | 9.72728 | 15314 ft | 337 kts | 313° |
| 2026-05-07 12:23 | 49.80045 | 9.70465 | 14893 ft | 337 kts | 323° |
| 2026-05-07 12:24 | 49.81963 | 9.68383 | 14641 ft | 337 kts | 324° |
| 2026-05-07 12:24 | 49.83891 | 9.66309 | 14393 ft | 336 kts | 324° |
| 2026-05-07 12:24 | 49.85808 | 9.64253 | 14140 ft | 334 kts | 324° |
| 2026-05-07 12:24 | 49.87716 | 9.62211 | 13892 ft | 333 kts | 324° |
| 2026-05-07 12:25 | 49.89618 | 9.60176 | 13641 ft | 331 kts | 324° |
| 2026-05-07 12:25 | 49.91484 | 9.58098 | 13387 ft | 329 kts | 318° |
| 2026-05-07 12:25 | 49.93143 | 9.55670 | 13140 ft | 327 kts | 314° |
| 2026-05-07 12:25 | 49.94758 | 9.53189 | 12910 ft | 326 kts | 314° |
| 2026-05-07 12:26 | 49.96367 | 9.50712 | 12710 ft | 325 kts | 314° |
| 2026-05-07 12:26 | 49.97966 | 9.48252 | 12509 ft | 323 kts | 314° |
| 2026-05-07 12:26 | 49.99471 | 9.45669 | 12306 ft | 322 kts | 306° |
| 2026-05-07 12:26 | 50.00775 | 9.42848 | 12069 ft | 320 kts | 304° |
| 2026-05-07 12:27 | 50.02050 | 9.40011 | 11818 ft | 319 kts | 304° |
| 2026-05-07 12:27 | 50.03234 | 9.37117 | 11566 ft | 313 kts | 294° |
| 2026-05-07 12:27 | 50.03919 | 9.33896 | 11316 ft | 315 kts | 285° |
| 2026-05-07 12:27 | 50.04515 | 9.30609 | 11069 ft | 315 kts | 285° |
| 2026-05-07 12:28 | 50.05107 | 9.27335 | 10813 ft | 314 kts | 285° |
| 2026-05-07 12:28 | 50.05688 | 9.24108 | 10243 ft | 309 kts | 285° |
| 2026-05-07 12:28 | 50.06263 | 9.20902 | 9611 ft | 304 kts | 285° |
| 2026-05-07 12:28 | 50.06820 | 9.17794 | 9186 ft | 292 kts | 285° |
| 2026-05-07 12:29 | 50.07355 | 9.14802 | 8789 ft | 281 kts | 285° |
| 2026-05-07 12:29 | 50.07866 | 9.11931 | 8414 ft | 270 kts | 285° |
| 2026-05-07 12:29 | 50.08355 | 9.09166 | 8046 ft | 260 kts | 285° |
| 2026-05-07 12:29 | 50.08826 | 9.06499 | 7701 ft | 250 kts | 285° |
| 2026-05-07 12:30 | 50.09276 | 9.03941 | 7371 ft | 240 kts | 285° |
| 2026-05-07 12:30 | 50.09713 | 9.01465 | 7044 ft | 237 kts | 286° |
| 2026-05-07 12:30 | 50.10150 | 8.98992 | 6714 ft | 234 kts | 286° |
| 2026-05-07 12:30 | 50.10572 | 8.96584 | 6398 ft | 227 kts | 286° |
| 2026-05-07 12:31 | 50.10980 | 8.94256 | 6086 ft | 219 kts | 286° |
| 2026-05-07 12:31 | 50.11378 | 8.91997 | 5792 ft | 213 kts | 287° |
| 2026-05-07 12:31 | 50.11770 | 8.89779 | 5413 ft | 212 kts | 287° |
| 2026-05-07 12:31 | 50.12150 | 8.87557 | 5024 ft | 210 kts | 282° |
| 2026-05-07 12:32 | 50.12115 | 8.85183 | 4837 ft | 238 kts | 257° |
| 2026-05-07 12:32 | 50.11572 | 8.82738 | 4511 ft | 248 kts | 251° |
| 2026-05-07 12:32 | 50.10926 | 8.80094 | 4137 ft | 263 kts | 251° |
| 2026-05-07 12:32 | 50.10314 | 8.77528 | 3769 ft | 243 kts | 251° |
| 2026-05-07 12:33 | 50.09247 | 8.73008 | 3155 ft | 207 kts | 251° |
| 2026-05-07 12:33 | 50.08776 | 8.71020 | 2914 ft | 190 kts | 251° |
| 2026-05-07 12:33 | 50.08334 | 8.69151 | 2620 ft | 176 kts | 251° |
| 2026-05-07 12:34 | 50.07972 | 8.67624 | 2409 ft | 166 kts | 251° |
| 2026-05-07 12:34 | 50.07599 | 8.66053 | 2186 ft | 148 kts | 250° |
| 2026-05-07 12:34 | 50.07281 | 8.64714 | 1995 ft | 137 kts | 250° |
| 2026-05-07 12:34 | 50.06959 | 8.63356 | 1807 ft | 131 kts | 250° |
| 2026-05-07 12:35 | 50.06646 | 8.62039 | 1630 ft | 129 kts | 250° |
| 2026-05-07 12:35 | 50.06348 | 8.60786 | 1457 ft | 128 kts | 250° |
| 2026-05-07 12:35 | 50.06059 | 8.59574 | 1287 ft | 128 kts | 250° |
| 2026-05-07 12:35 | 50.05733 | 8.58204 | 1090 ft | 132 kts | 249° |
| 2026-05-07 12:36 | 50.05427 | 8.56919 | 905 ft | 122 kts | 250° |
| 2026-05-07 12:36 | 50.05129 | 8.55678 | 752 ft | 127 kts | 249° |
| 2026-05-07 12:36 | 50.04838 | 8.54415 | 532 ft | 121 kts | 250° |
| 2026-05-07 12:36 | 50.04539 | 8.53194 | 366 ft | 119 kts | 251° |
| 2026-05-07 12:37 | 50.04299 | 8.52196 | 345 ft | 75 kts | 249° |
| 2026-05-07 12:37 | 50.04171 | 8.51673 | 348 ft | 35 kts | 243° |
| 2026-05-07 12:37 | 50.04042 | 8.51456 | 345 ft | 25 kts | 223° |
| 2026-05-07 12:37 | 50.03934 | 8.51369 | 345 ft | 14 kts | 163° |
| 2026-05-07 12:38 | 50.03917 | 8.51493 | 348 ft | 13 kts | 69° |
| 2026-05-07 12:38 | 50.03952 | 8.51628 | 345 ft | 14 kts | 69° |
| 2026-05-07 12:38 | 50.03987 | 8.51768 | 354 ft | 14 kts | 69° |
| 2026-05-07 12:38 | 50.04018 | 8.51918 | 345 ft | 15 kts | 69° |
| 2026-05-07 12:39 | 50.04065 | 8.52109 | 351 ft | 24 kts | 69° |
| 2026-05-07 12:39 | 50.04123 | 8.52354 | 351 ft | 24 kts | 70° |
| 2026-05-07 12:39 | 50.04180 | 8.52603 | 346 ft | 25 kts | 70° |
| 2026-05-07 12:39 | 50.04242 | 8.52856 | 346 ft | 25 kts | 69° |
| 2026-05-07 12:40 | 50.04306 | 8.53112 | 346 ft | 26 kts | 69° |
| 2026-05-07 12:40 | 50.04375 | 8.53401 | 346 ft | 32 kts | 70° |
| 2026-05-07 12:40 | 50.04408 | 8.53735 | 347 ft | 31 kts | 85° |
| 2026-05-07 12:40 | 50.04428 | 8.54076 | 353 ft | 31 kts | 83° |
| 2026-05-07 12:41 | 50.04453 | 8.54404 | 346 ft | 31 kts | 85° |
| 2026-05-07 12:41 | 50.04400 | 8.54665 | 351 ft | 26 kts | 129° |
| 2026-05-07 12:41 | 50.04249 | 8.54806 | 346 ft | 26 kts | 160° |
| 2026-05-07 12:41 | 50.04120 | 8.54883 | 348 ft | 13 kts | 158° |
| 2026-05-07 12:42 | 50.04048 | 8.54928 | 346 ft | 11 kts | 158° |
| 2026-05-07 12:42 | 50.04022 | 8.55023 | 348 ft | 12 kts | 71° |
| 2026-05-07 12:42 | 50.04055 | 8.55170 | 348 ft | 15 kts | 71° |
| 2026-05-07 12:42 | 50.04094 | 8.55329 | 346 ft | 17 kts | 69° |
| 2026-05-07 12:43 | 50.04141 | 8.55522 | 346 ft | 20 kts | 70° |
| 2026-05-07 12:43 | 50.04190 | 8.55734 | 353 ft | 21 kts | 70° |
| 2026-05-07 12:43 | 50.04241 | 8.55949 | 346 ft | 21 kts | 70° |
| 2026-05-07 12:43 | 50.04293 | 8.56169 | 346 ft | 22 kts | 70° |
| 2026-05-07 12:44 | 50.04346 | 8.56393 | 348 ft | 22 kts | 70° |
| 2026-05-07 12:44 | 50.04399 | 8.56619 | 346 ft | 23 kts | 69° |
| 2026-05-07 12:44 | 50.04449 | 8.56818 | 346 ft | 19 kts | 59° |
| 2026-05-07 12:44 | 50.04564 | 8.56895 | 346 ft | 17 kts | 13° |
| 2026-05-07 12:45 | 50.04670 | 8.56945 | 346 ft | 11 kts | 23° |
| 2026-05-07 12:45 | 50.04716 | 8.56969 | 351 ft | 10 kts | 2° |
| 2026-05-07 12:45 | 50.04747 | 8.56898 | 346 ft | 6 kts | 289° |
| 2026-05-07 12:45 | 50.04751 | 8.56884 | 346 ft | 0 kts | 294° |